Accueil
METAR-TAF:

METAR-TAF

Aéroports :

Aéroport international de Berne

Berne, Suisse

latitude: 46-55N, longitude: 007-30E, altitude: 505 m

Observation

Le bulletin a été fait il y a 29 minutes, à 05:20 UTC
Vent 3 kt de sud/sud-est, variant entre est et sud
Température 9°C
Humidité 93%
Pression 1032 hPa
Visibilité 10 km ou plus
pas de nuages en-dessous de 1500 mètres et pas de cumulonimbus.

METAR: LSZB 250520Z AUTO 15003KT 080V180 CAVOK 09/08 Q1032

Heure: 07:49 (05:49 UTC)

Prévision

Le bulletin a été fait il y a 24 minutes, à 05:25 UTC
Prévision valable du 25 à 06 UTC au 25 à 15 UTC
Vent 3 kt de direction variable
Visibilité 10 km ou plus
pas de nuages en-dessous de 1500 mètres et pas de cumulonimbus.
Temporairement
du 25 à 11 UTC au 25 à 15 UTC
Vent 8 kt de nord-ouest
Visibilité 10 km ou plus
Quelques nuages à une hauteur de 5000 ft

TAF: LSZB 250525Z 2506/2515 VRB03KT CAVOK TEMPO 2511/2515 31008KT 9999 FEW050

Observations et prévisions météorologiques de plus de 4000 aéroports (messages METAR et TAF).

Les stations disponibles sont représentées par des disques jaunes et rouges sur la carte.

Passer la souris dessus pour voir le nom de la station.

Cliquer dessus pour voir les observations et prévisions météorologiques.

Pour changer de carte: cliquez sur les boutons verts avec une croix noire pour zoomer, sur le bouton vert avec un tiret pour effectuer un zoom arrière, ou sur les flèches vertes pour les cartes adjacentes.


METAR-TAF: